createdAt,value
2018-12-21T00:00:12.022Z,9.65
2018-12-21T00:01:12.077Z,9.63
2018-12-21T00:02:12.131Z,9.65
2018-12-21T00:03:12.185Z,9.68
2018-12-21T00:04:12.370Z,9.70
2018-12-21T00:05:12.293Z,9.75
2018-12-21T00:06:12.346Z,9.67
2018-12-21T00:07:12.398Z,9.63
2018-12-21T00:08:12.455Z,9.71
2018-12-21T00:09:12.507Z,9.63
2018-12-21T00:10:12.564Z,9.74
2018-12-21T00:11:12.616Z,9.71
2018-12-21T00:12:12.670Z,9.75
2018-12-21T00:13:12.724Z,9.70
2018-12-21T00:14:12.778Z,9.59
2018-12-21T00:15:12.831Z,9.63
2018-12-21T00:16:12.884Z,9.62
2018-12-21T00:17:12.939Z,9.70
2018-12-21T00:18:12.996Z,9.75
2018-12-21T00:19:13.047Z,9.77
2018-12-21T00:20:13.100Z,9.70
2018-12-21T00:21:21.609Z,9.63
2018-12-21T00:22:13.208Z,9.63
2018-12-21T00:23:13.262Z,9.65
2018-12-21T00:24:13.317Z,9.67
2018-12-21T00:25:13.370Z,9.63
2018-12-21T00:26:13.425Z,9.60
2018-12-21T00:27:13.477Z,9.71
2018-12-21T00:28:13.533Z,9.74
2018-12-21T00:29:13.585Z,9.63
2018-12-21T00:30:13.640Z,9.70
2018-12-21T00:31:13.698Z,9.71
2018-12-21T00:32:13.750Z,9.71
2018-12-21T00:33:13.800Z,9.58
2018-12-21T00:34:13.855Z,9.62
2018-12-21T00:35:13.908Z,9.68
2018-12-21T00:36:13.964Z,9.68
2018-12-21T00:37:14.019Z,9.63
2018-12-21T00:38:14.070Z,9.70
2018-12-21T00:39:14.122Z,9.60
2018-12-21T00:40:14.178Z,9.75
2018-12-21T00:41:14.233Z,9.70
2018-12-21T00:42:14.286Z,9.71
2018-12-21T00:43:14.339Z,9.75
2018-12-21T00:44:14.393Z,9.68
2018-12-21T00:45:14.447Z,9.73
2018-12-21T00:46:14.501Z,9.74
2018-12-21T00:47:14.553Z,9.71
2018-12-21T00:48:14.608Z,9.73
2018-12-21T00:49:14.667Z,9.75
2018-12-21T00:50:14.715Z,9.75
2018-12-21T00:51:14.769Z,9.63
2018-12-21T00:52:14.822Z,9.63
2018-12-21T00:53:14.878Z,9.71
2018-12-21T00:54:14.933Z,9.71
2018-12-21T00:55:14.984Z,9.77
2018-12-21T00:56:15.039Z,9.75
2018-12-21T00:57:15.092Z,9.71
2018-12-21T00:58:15.147Z,9.62
2018-12-21T00:59:15.200Z,9.73
2018-12-21T01:00:15.254Z,9.71
2018-12-21T01:01:15.308Z,9.74
2018-12-21T01:02:15.363Z,9.68
2018-12-21T01:03:15.416Z,9.68
2018-12-21T01:04:15.470Z,9.77
2018-12-21T01:05:15.525Z,9.74
2018-12-21T01:06:15.577Z,9.70
2018-12-21T01:07:15.631Z,9.59
2018-12-21T01:08:15.685Z,9.78
2018-12-21T01:09:15.739Z,9.77
2018-12-21T01:10:16.102Z,9.73
2018-12-21T01:11:15.846Z,9.77
2018-12-21T01:12:15.902Z,9.73
2018-12-21T01:13:15.956Z,9.73
2018-12-21T01:14:16.009Z,9.73
2018-12-21T01:15:16.061Z,9.73
2018-12-21T01:16:16.176Z,9.70
2018-12-21T01:17:16.172Z,9.74
2018-12-21T01:18:16.225Z,9.74
2018-12-21T01:19:16.278Z,9.70
2018-12-21T01:20:16.332Z,9.68
2018-12-21T01:21:16.386Z,9.71
2018-12-21T01:22:16.440Z,9.78
2018-12-21T01:23:16.492Z,9.86
2018-12-21T01:24:16.550Z,9.88
2018-12-21T01:25:16.601Z,9.78
2018-12-21T01:26:16.654Z,9.80
2018-12-21T01:27:16.708Z,9.81
2018-12-21T01:28:16.761Z,9.75
2018-12-21T01:29:16.819Z,9.78
2018-12-21T01:30:16.870Z,9.77
2018-12-21T01:31:16.924Z,9.78
2018-12-21T01:32:16.976Z,9.85
2018-12-21T01:33:17.031Z,9.80
2018-12-21T01:34:17.086Z,9.81
2018-12-21T01:35:17.139Z,9.78
2018-12-21T01:36:17.193Z,9.88
2018-12-21T01:37:17.247Z,9.85
2018-12-21T01:38:17.300Z,9.81
2018-12-21T01:39:17.354Z,9.77
2018-12-21T01:40:17.408Z,9.81
2018-12-21T01:41:17.463Z,9.83
2018-12-21T01:42:17.517Z,9.81
2018-12-21T01:43:17.572Z,9.80
2018-12-21T01:44:17.624Z,9.85
2018-12-21T01:45:17.678Z,9.78
2018-12-21T01:46:17.732Z,9.75
2018-12-21T01:47:17.793Z,9.88
2018-12-21T01:48:17.840Z,9.83
2018-12-21T01:49:17.894Z,9.81
2018-12-21T01:50:17.952Z,9.85
2018-12-21T01:51:18.002Z,9.83
2018-12-21T01:52:18.056Z,9.86
2018-12-21T01:53:18.110Z,9.80
2018-12-21T01:54:18.164Z,9.92
2018-12-21T01:55:18.217Z,9.92
2018-12-21T01:56:18.272Z,9.85
2018-12-21T01:57:18.326Z,9.88
2018-12-21T01:58:18.381Z,9.88
2018-12-21T01:59:18.433Z,9.86
2018-12-21T02:00:18.487Z,9.83
2018-12-21T02:01:18.544Z,9.86
2018-12-21T02:02:18.598Z,9.78
2018-12-21T02:03:18.649Z,9.83
2018-12-21T02:04:18.705Z,9.95
2018-12-21T02:05:18.757Z,9.85
2018-12-21T02:06:18.817Z,9.85
2018-12-21T02:07:18.866Z,9.83
2018-12-21T02:08:18.919Z,9.91
2018-12-21T02:09:18.973Z,9.95
2018-12-21T02:10:19.028Z,9.95
2018-12-21T02:11:19.080Z,9.95
2018-12-21T02:12:19.134Z,9.89
2018-12-21T02:13:19.190Z,10.01
2018-12-21T02:14:19.244Z,9.99
2018-12-21T02:15:19.297Z,9.95
2018-12-21T02:16:19.350Z,9.93
2018-12-21T02:17:19.406Z,9.98
2018-12-21T02:18:19.459Z,9.95
2018-12-21T02:19:19.513Z,9.95
2018-12-21T02:20:19.568Z,9.93
2018-12-21T02:21:19.630Z,9.96
2018-12-21T02:22:19.675Z,9.99
2018-12-21T02:23:19.731Z,9.98
2018-12-21T02:24:19.785Z,9.95
2018-12-21T02:25:19.837Z,9.95
2018-12-21T02:26:19.892Z,9.98
2018-12-21T02:27:19.945Z,9.85
2018-12-21T02:28:19.999Z,9.98
2018-12-21T02:29:20.053Z,9.98
2018-12-21T02:30:20.113Z,9.95
2018-12-21T02:31:20.164Z,9.93
2018-12-21T02:32:20.216Z,9.95
2018-12-21T02:33:20.280Z,10.01
2018-12-21T02:34:20.399Z,9.98
2018-12-21T02:35:20.378Z,10.01
2018-12-21T02:36:20.434Z,9.99
2018-12-21T02:37:20.485Z,9.95
2018-12-21T02:38:20.540Z,9.93
2018-12-21T02:39:20.593Z,9.99
2018-12-21T02:40:20.647Z,10.02
2018-12-21T02:41:20.701Z,9.99
2018-12-21T02:42:20.756Z,9.96
2018-12-21T02:43:20.810Z,9.96
2018-12-21T02:44:20.867Z,9.93
2018-12-21T02:45:20.918Z,10.01
2018-12-21T02:46:20.972Z,9.95
2018-12-21T02:47:21.025Z,9.89
2018-12-21T02:48:21.081Z,9.88
2018-12-21T02:49:21.135Z,9.93
2018-12-21T02:50:21.200Z,9.93
2018-12-21T02:51:21.243Z,9.86
2018-12-21T02:52:21.299Z,9.95
2018-12-21T02:53:21.354Z,9.78
2018-12-21T02:54:21.407Z,9.92
2018-12-21T02:55:21.459Z,9.93
2018-12-21T02:56:21.513Z,9.95
2018-12-21T02:57:21.568Z,9.93
2018-12-21T02:58:21.623Z,9.93
2018-12-21T02:59:21.674Z,9.98
2018-12-21T03:00:21.729Z,10.02
2018-12-21T03:01:21.799Z,10.02
2018-12-21T03:02:21.838Z,9.98
2018-12-21T03:03:21.896Z,9.98
2018-12-21T03:04:21.945Z,10.07
2018-12-21T03:05:21.998Z,9.98
2018-12-21T03:06:22.053Z,9.95
2018-12-21T03:07:22.105Z,10.02
2018-12-21T03:08:22.161Z,10.04
2018-12-21T03:09:22.214Z,10.04
2018-12-21T03:10:22.270Z,10.02
2018-12-21T03:11:22.323Z,10.04
2018-12-21T03:12:22.377Z,10.09
2018-12-21T03:13:22.433Z,10.11
2018-12-21T03:14:22.489Z,10.01
2018-12-21T03:15:22.538Z,10.02
2018-12-21T03:16:22.594Z,9.99
2018-12-21T03:17:22.648Z,10.01
2018-12-21T03:18:22.703Z,10.07
2018-12-21T03:19:22.754Z,9.98
2018-12-21T03:20:22.828Z,9.96
2018-12-21T03:21:22.873Z,9.93
2018-12-21T03:22:22.917Z,9.96
2018-12-21T03:23:22.972Z,9.98
2018-12-21T03:24:23.025Z,9.98
2018-12-21T03:25:23.083Z,9.98
2018-12-21T03:26:23.134Z,9.93
2018-12-21T03:27:23.186Z,9.91
2018-12-21T03:28:23.240Z,9.85
2018-12-21T03:29:23.294Z,9.85
2018-12-21T03:30:23.349Z,9.86
2018-12-21T03:31:23.405Z,9.85
2018-12-21T03:32:23.459Z,9.86
2018-12-21T03:33:23.512Z,9.81
2018-12-21T03:34:23.583Z,9.78
2018-12-21T03:35:23.621Z,9.81
2018-12-21T03:36:23.675Z,9.75
2018-12-21T03:37:23.728Z,9.77
2018-12-21T03:38:23.782Z,9.70
2018-12-21T03:39:23.835Z,9.73
2018-12-21T03:40:23.890Z,9.70
2018-12-21T03:41:23.950Z,9.85
2018-12-21T03:42:23.999Z,9.85
2018-12-21T03:43:24.051Z,9.78
2018-12-21T03:44:24.104Z,9.75
2018-12-21T03:45:24.160Z,9.73
2018-12-21T03:46:24.215Z,9.74
2018-12-21T03:47:24.266Z,9.62
2018-12-21T03:48:24.323Z,9.60
2018-12-21T03:49:24.954Z,9.48
2018-12-21T03:50:24.432Z,9.52
2018-12-21T03:51:24.483Z,9.50
2018-12-21T03:52:24.798Z,9.50
2018-12-21T03:53:24.591Z,9.42
2018-12-21T03:54:24.647Z,9.37
2018-12-21T03:55:24.700Z,9.38
2018-12-21T03:56:24.752Z,9.37
2018-12-21T03:57:24.809Z,9.42
2018-12-21T03:58:24.862Z,9.42
2018-12-21T03:59:24.915Z,9.42
2018-12-21T04:00:24.969Z,9.38
2018-12-21T04:01:25.025Z,9.30
2018-12-21T04:02:25.077Z,9.31
2018-12-21T04:03:25.131Z,9.27
2018-12-21T04:04:25.184Z,9.24
2018-12-21T04:05:25.238Z,9.22
2018-12-21T04:06:25.295Z,9.24
2018-12-21T04:07:25.346Z,9.27
2018-12-21T04:08:25.401Z,9.24
2018-12-21T04:09:25.454Z,9.26
2018-12-21T04:10:25.508Z,9.26
2018-12-21T04:11:25.559Z,9.12
2018-12-21T04:12:25.614Z,9.17
2018-12-21T04:13:25.669Z,9.16
2018-12-21T04:14:25.723Z,9.13
2018-12-21T04:15:25.776Z,9.04
2018-12-21T04:16:25.829Z,9.08
2018-12-21T04:17:25.885Z,9.12
2018-12-21T04:18:25.938Z,9.10
2018-12-21T04:19:25.995Z,9.08
2018-12-21T04:20:26.046Z,9.06
2018-12-21T04:21:26.099Z,9.10
2018-12-21T04:22:34.069Z,9.00
2018-12-21T04:23:26.204Z,9.04
2018-12-21T04:24:26.257Z,9.04
2018-12-21T04:25:26.312Z,8.98
2018-12-21T04:26:26.365Z,8.98
2018-12-21T04:27:26.418Z,9.03
2018-12-21T04:28:26.474Z,9.15
2018-12-21T04:29:26.526Z,9.20
2018-12-21T04:30:26.683Z,9.16
2018-12-21T04:31:26.633Z,9.16
2018-12-21T04:32:26.685Z,9.19
2018-12-21T04:33:26.739Z,9.15
2018-12-21T04:34:26.797Z,9.06
2018-12-21T04:35:26.848Z,8.98
2018-12-21T04:36:26.902Z,9.17
2018-12-21T04:37:26.954Z,9.20
2018-12-21T04:38:27.008Z,9.16
2018-12-21T04:39:27.060Z,9.30
2018-12-21T04:40:27.115Z,9.24
2018-12-21T04:41:27.170Z,9.24
2018-12-21T04:42:27.222Z,9.23
2018-12-21T04:43:27.275Z,9.22
2018-12-21T04:44:27.329Z,9.20
2018-12-21T04:45:27.385Z,9.23
2018-12-21T04:46:27.437Z,9.24
2018-12-21T04:47:27.490Z,9.26
2018-12-21T04:48:27.549Z,9.22
2018-12-21T04:49:27.604Z,9.26
2018-12-21T04:50:27.654Z,9.23
2018-12-21T04:51:27.704Z,9.30
2018-12-21T04:52:27.757Z,9.16
2018-12-21T04:53:27.811Z,9.13
2018-12-21T04:54:27.865Z,9.17
2018-12-21T04:55:27.919Z,9.17
2018-12-21T04:56:27.973Z,9.17
2018-12-21T04:57:28.028Z,9.19
2018-12-21T04:58:28.086Z,9.16
2018-12-21T04:59:28.139Z,9.19
2018-12-21T05:00:28.186Z,9.26
2018-12-21T05:01:28.240Z,9.32
2018-12-21T05:02:28.293Z,9.26
2018-12-21T05:03:28.346Z,9.26
2018-12-21T05:04:28.404Z,9.22
2018-12-21T05:05:28.455Z,9.15
2018-12-21T05:06:28.509Z,9.17
2018-12-21T05:07:28.561Z,9.24
2018-12-21T05:08:28.616Z,9.20
2018-12-21T05:09:28.670Z,9.15
2018-12-21T05:10:28.722Z,9.26
2018-12-21T05:11:28.777Z,9.16
2018-12-21T05:12:28.828Z,9.16
2018-12-21T05:13:28.884Z,9.23
2018-12-21T05:14:28.936Z,9.19
2018-12-21T05:15:28.990Z,9.16
2018-12-21T05:16:29.042Z,9.16
2018-12-21T05:17:29.096Z,9.16
2018-12-21T05:18:29.152Z,9.17
2018-12-21T05:19:29.204Z,9.16
2018-12-21T05:20:29.258Z,9.22
2018-12-21T05:21:29.312Z,9.26
2018-12-21T05:22:29.366Z,9.19
2018-12-21T05:23:29.421Z,9.08
2018-12-21T05:24:29.485Z,9.15
2018-12-21T05:25:29.526Z,9.13
2018-12-21T05:26:29.581Z,9.06
2018-12-21T05:27:29.636Z,9.12
2018-12-21T05:28:29.687Z,9.15
2018-12-21T05:29:29.740Z,9.15
2018-12-21T05:30:29.795Z,9.17
2018-12-21T05:31:29.848Z,9.03
2018-12-21T05:32:29.901Z,9.15
2018-12-21T05:33:29.955Z,9.08
2018-12-21T05:34:30.012Z,9.06
2018-12-21T05:35:30.065Z,9.06
2018-12-21T05:36:30.116Z,9.17
2018-12-21T05:37:30.172Z,9.17
2018-12-21T05:38:30.225Z,9.16
2018-12-21T05:39:30.280Z,9.16
2018-12-21T05:40:30.333Z,9.00
2018-12-21T05:41:30.386Z,9.10
2018-12-21T05:42:30.439Z,9.13
2018-12-21T05:43:30.493Z,9.10
2018-12-21T05:44:30.546Z,9.08
2018-12-21T05:45:30.604Z,9.08
2018-12-21T05:46:30.655Z,9.01
2018-12-21T05:47:30.708Z,9.08
2018-12-21T05:48:30.761Z,9.08
2018-12-21T05:49:30.817Z,9.19
2018-12-21T05:50:30.870Z,9.03
2018-12-21T05:51:30.925Z,9.04
2018-12-21T05:52:30.977Z,9.10
2018-12-21T05:53:31.033Z,9.03
2018-12-21T05:54:31.085Z,9.10
2018-12-21T05:55:31.139Z,9.15
2018-12-21T05:56:31.192Z,9.13
2018-12-21T05:57:31.245Z,9.13
2018-12-21T05:58:31.304Z,9.16
2018-12-21T05:59:31.353Z,9.17
2018-12-21T06:00:31.407Z,9.16
2018-12-21T06:01:31.461Z,9.15
2018-12-21T06:02:31.517Z,9.10
2018-12-21T06:03:31.570Z,9.15
2018-12-21T06:04:31.622Z,9.15
2018-12-21T06:05:31.678Z,9.16
2018-12-21T06:06:31.732Z,9.04
2018-12-21T06:07:33.885Z,9.04
2018-12-21T06:08:31.839Z,9.10
2018-12-21T06:09:31.896Z,9.17
2018-12-21T06:10:31.947Z,9.15
2018-12-21T06:11:32.000Z,9.16
2018-12-21T06:12:32.054Z,9.12
2018-12-21T06:13:32.108Z,9.13
2018-12-21T06:14:32.162Z,9.17
2018-12-21T06:15:32.219Z,9.16
2018-12-21T06:16:32.269Z,9.17
2018-12-21T06:17:32.324Z,9.13
2018-12-21T06:18:32.380Z,9.16
2018-12-21T06:19:32.430Z,9.17
2018-12-21T06:20:32.485Z,9.15
2018-12-21T06:21:32.539Z,9.17
2018-12-21T06:22:32.593Z,9.17
2018-12-21T06:23:32.647Z,9.24
2018-12-21T06:24:32.701Z,9.30
2018-12-21T06:25:32.755Z,9.16
2018-12-21T06:26:32.809Z,9.22
2018-12-21T06:27:32.863Z,9.16
2018-12-21T06:28:32.918Z,9.12
2018-12-21T06:29:32.970Z,9.04
2018-12-21T06:30:33.025Z,9.15
2018-12-21T06:31:33.079Z,9.13
2018-12-21T06:32:33.132Z,9.10
2018-12-21T06:33:33.187Z,9.13
2018-12-21T06:34:33.243Z,9.19
2018-12-21T06:35:33.295Z,9.15
2018-12-21T06:36:33.350Z,9.19
2018-12-21T06:37:33.403Z,9.26
2018-12-21T06:38:33.457Z,9.30
2018-12-21T06:39:33.511Z,9.34
2018-12-21T06:40:33.564Z,9.35
2018-12-21T06:41:33.619Z,9.41
2018-12-21T06:42:33.676Z,9.50
2018-12-21T06:43:33.726Z,9.68
2018-12-21T06:44:33.780Z,9.65
2018-12-21T06:45:33.835Z,9.60
2018-12-21T06:46:33.887Z,9.71
2018-12-21T06:47:33.941Z,9.73
2018-12-21T06:48:33.998Z,9.73
2018-12-21T06:49:34.049Z,9.85
2018-12-21T06:50:34.104Z,9.68
2018-12-21T06:51:34.157Z,9.86
2018-12-21T06:52:34.212Z,9.81
2018-12-21T06:53:34.266Z,9.71
2018-12-21T06:54:34.320Z,9.77
2018-12-21T06:55:34.374Z,9.74
2018-12-21T06:56:34.427Z,9.80
2018-12-21T06:57:34.483Z,9.74
2018-12-21T06:58:34.536Z,9.88
2018-12-21T06:59:34.588Z,9.81
2018-12-21T07:00:34.642Z,9.83
2018-12-21T07:01:34.696Z,9.89
2018-12-21T07:02:34.766Z,9.99
2018-12-21T07:03:34.803Z,9.98
2018-12-21T07:04:34.858Z,9.99
2018-12-21T07:05:34.913Z,10.04
2018-12-21T07:06:34.966Z,10.04
2018-12-21T07:07:35.335Z,9.99
2018-12-21T07:08:35.074Z,10.07
2018-12-21T07:09:35.129Z,10.11
2018-12-21T07:10:35.202Z,10.18
2018-12-21T07:11:35.239Z,10.18
2018-12-21T07:12:35.289Z,10.07
2018-12-21T07:13:35.343Z,10.14
2018-12-21T07:14:35.399Z,10.24
2018-12-21T07:15:35.451Z,10.25
2018-12-21T07:16:35.504Z,10.16
2018-12-21T07:17:35.867Z,10.09
2018-12-21T07:18:35.613Z,10.04
2018-12-21T07:19:35.666Z,10.11
2018-12-21T07:20:35.722Z,10.17
2018-12-21T07:21:35.775Z,10.20
2018-12-21T07:22:35.829Z,10.18
2018-12-21T07:23:35.884Z,10.16
2018-12-21T07:24:35.935Z,10.29
2018-12-21T07:25:35.989Z,10.32
2018-12-21T07:26:36.058Z,10.42
2018-12-21T07:27:36.098Z,10.44
2018-12-21T07:28:36.153Z,10.34
2018-12-21T07:29:36.207Z,10.44
2018-12-21T07:30:36.259Z,10.36
2018-12-21T07:31:36.314Z,10.49
2018-12-21T07:32:36.368Z,10.51
2018-12-21T07:33:36.422Z,10.43
2018-12-21T07:34:36.476Z,10.55
2018-12-21T07:35:36.530Z,10.49
2018-12-21T07:36:36.583Z,10.31
2018-12-21T07:37:36.638Z,10.51
2018-12-21T07:38:36.692Z,10.44
2018-12-21T07:39:36.745Z,10.44
2018-12-21T07:40:36.798Z,10.31
2018-12-21T07:41:36.986Z,10.38
2018-12-21T07:42:36.908Z,10.36
2018-12-21T07:43:36.961Z,10.36
2018-12-21T07:44:37.016Z,10.36
2018-12-21T07:45:37.070Z,10.36
2018-12-21T07:46:37.156Z,10.51
2018-12-21T07:47:37.176Z,10.63
2018-12-21T07:48:37.232Z,10.54
2018-12-21T07:49:37.286Z,10.57
2018-12-21T07:50:37.339Z,10.58
2018-12-21T07:51:37.394Z,10.66
2018-12-21T07:52:37.447Z,10.54
2018-12-21T07:53:37.501Z,10.49
2018-12-21T07:54:37.555Z,10.43
2018-12-21T07:55:37.609Z,10.49
2018-12-21T07:56:37.664Z,10.42
2018-12-21T07:57:37.718Z,10.51
2018-12-21T07:58:37.770Z,10.52
2018-12-21T07:59:37.825Z,10.49
2018-12-21T08:00:37.879Z,10.58
2018-12-21T08:01:37.934Z,10.54
2018-12-21T08:02:37.987Z,10.54
2018-12-21T08:03:38.040Z,10.57
2018-12-21T08:04:38.094Z,10.42
2018-12-21T08:05:38.150Z,10.44
2018-12-21T08:06:38.206Z,10.42
2018-12-21T08:07:38.587Z,10.51
2018-12-21T08:08:38.350Z,10.55
2018-12-21T08:09:38.397Z,10.57
2018-12-21T08:10:38.421Z,10.44
2018-12-21T08:11:38.474Z,10.51
2018-12-21T08:12:38.529Z,10.51
2018-12-21T08:13:38.582Z,10.43
2018-12-21T08:14:38.638Z,10.47
2018-12-21T08:15:38.690Z,10.44
2018-12-21T08:16:38.747Z,10.43
2018-12-21T08:17:38.799Z,10.44
2018-12-21T08:18:38.854Z,10.35
2018-12-21T08:19:38.907Z,10.34
2018-12-21T08:20:38.962Z,10.44
2018-12-21T08:21:39.016Z,10.39
2018-12-21T08:22:39.072Z,10.42
2018-12-21T08:23:44.276Z,10.49
2018-12-21T08:24:39.178Z,10.42
2018-12-21T08:25:39.232Z,10.47
2018-12-21T08:26:39.287Z,10.60
2018-12-21T08:27:39.344Z,10.62
2018-12-21T08:28:39.395Z,10.66
2018-12-21T08:29:39.451Z,10.62
2018-12-21T08:30:39.505Z,10.63
2018-12-21T08:31:39.559Z,10.65
2018-12-21T08:32:39.613Z,10.58
2018-12-21T08:33:39.667Z,10.63
2018-12-21T08:34:39.723Z,10.63
2018-12-21T08:35:39.775Z,10.68
2018-12-21T08:36:39.831Z,10.65
2018-12-21T08:37:39.886Z,10.63
2018-12-21T08:38:39.940Z,10.58
2018-12-21T08:39:39.993Z,10.65
2018-12-21T08:40:40.047Z,10.66
2018-12-21T08:41:40.101Z,10.60
2018-12-21T08:42:40.156Z,10.68
2018-12-21T08:43:40.210Z,10.63
2018-12-21T08:44:40.266Z,10.63
2018-12-21T08:45:40.351Z,10.69
2018-12-21T08:46:40.373Z,10.70
2018-12-21T08:47:40.427Z,10.70
2018-12-21T08:48:40.483Z,10.75
2018-12-21T08:49:40.536Z,10.84
2018-12-21T08:50:40.592Z,10.83
2018-12-21T08:51:40.645Z,10.73
2018-12-21T08:52:40.699Z,10.84
2018-12-21T08:53:40.773Z,10.72
2018-12-21T08:54:40.809Z,10.86
2018-12-21T08:55:40.863Z,10.78
2018-12-21T08:56:40.917Z,10.83
2018-12-21T08:57:40.972Z,10.83
2018-12-21T08:58:41.026Z,10.83
2018-12-21T08:59:41.080Z,10.86
2018-12-21T09:00:41.136Z,10.87
2018-12-21T09:01:41.190Z,10.80
2018-12-21T09:02:41.245Z,10.72
2018-12-21T09:03:41.299Z,10.70
2018-12-21T09:04:41.506Z,10.83
2018-12-21T09:05:41.408Z,10.91
2018-12-21T09:06:41.484Z,11.02
2018-12-21T09:07:41.516Z,10.98
2018-12-21T09:08:41.572Z,10.94
2018-12-21T09:09:41.626Z,10.80
2018-12-21T09:10:41.681Z,10.86
2018-12-21T09:11:41.734Z,10.93
2018-12-21T09:12:41.790Z,10.86
2018-12-21T09:13:41.845Z,10.93
2018-12-21T09:14:41.898Z,10.91
2018-12-21T09:15:41.952Z,10.91
2018-12-21T09:16:42.008Z,10.90
2018-12-21T09:17:42.062Z,11.06
2018-12-21T09:18:42.121Z,11.12
2018-12-21T09:19:42.961Z,11.03
2018-12-21T09:20:42.230Z,11.16
2018-12-21T09:21:42.281Z,11.19
2018-12-21T09:22:42.341Z,11.21
2018-12-21T09:23:42.391Z,11.17
2018-12-21T09:24:42.444Z,11.12
2018-12-21T09:25:42.502Z,11.09
2018-12-21T09:26:42.554Z,11.08
2018-12-21T09:27:42.608Z,11.11
2018-12-21T09:28:42.667Z,11.05
2018-12-21T09:29:42.720Z,11.13
2018-12-21T09:30:42.775Z,11.08
2018-12-21T09:31:42.827Z,11.16
2018-12-21T09:32:42.881Z,11.23
2018-12-21T09:33:42.937Z,11.27
2018-12-21T09:34:42.992Z,11.16
2018-12-21T09:35:43.046Z,11.19
2018-12-21T09:36:43.131Z,11.13
2018-12-21T09:37:43.155Z,11.19
2018-12-21T09:38:43.209Z,11.08
2018-12-21T09:39:43.264Z,11.12
2018-12-21T09:40:43.318Z,11.12
2018-12-21T09:41:43.374Z,11.17
2018-12-21T09:42:43.429Z,11.13
2018-12-21T09:43:43.482Z,11.16
2018-12-21T09:44:43.537Z,11.20
2018-12-21T09:45:43.593Z,11.28
2018-12-21T09:46:43.646Z,11.33
2018-12-21T09:47:43.701Z,11.24
2018-12-21T09:48:43.756Z,11.26
2018-12-21T09:49:43.812Z,11.23
2018-12-21T09:50:43.867Z,11.30
2018-12-21T09:51:45.371Z,11.28
2018-12-21T09:52:43.976Z,11.35
2018-12-21T09:53:44.081Z,11.31
2018-12-21T09:54:44.086Z,11.30
2018-12-21T09:55:44.140Z,11.26
2018-12-21T09:56:44.195Z,11.27
2018-12-21T09:57:44.249Z,11.33
2018-12-21T09:58:44.305Z,11.46
2018-12-21T09:59:44.360Z,11.51
2018-12-21T10:00:44.414Z,11.49
2018-12-21T10:01:44.469Z,11.49
2018-12-21T10:02:44.524Z,11.45
2018-12-21T10:03:44.578Z,11.45
2018-12-21T10:04:44.633Z,11.51
2018-12-21T10:05:44.688Z,11.48
2018-12-21T10:06:44.744Z,11.49
2018-12-21T10:07:44.797Z,11.48
2018-12-21T10:08:44.855Z,11.51
2018-12-21T10:09:44.908Z,11.49
2018-12-21T10:10:44.962Z,11.45
2018-12-21T10:11:45.016Z,11.59
2018-12-21T10:12:45.072Z,11.51
2018-12-21T10:13:45.126Z,11.49
2018-12-21T10:14:45.183Z,11.49
2018-12-21T10:15:45.237Z,11.46
2018-12-21T10:16:45.292Z,11.49
2018-12-21T10:17:45.347Z,11.42
2018-12-21T10:18:45.403Z,11.59
2018-12-21T10:19:45.457Z,11.56
2018-12-21T10:20:45.511Z,11.56
2018-12-21T10:21:45.566Z,11.66
2018-12-21T10:22:45.624Z,11.63
2018-12-21T10:23:45.690Z,11.57
2018-12-21T10:24:45.731Z,11.62
2018-12-21T10:25:45.785Z,11.45
2018-12-21T10:26:45.842Z,11.46
2018-12-21T10:27:45.910Z,11.60
2018-12-21T10:28:45.951Z,11.57
2018-12-21T10:29:46.598Z,11.46
2018-12-21T10:30:46.062Z,11.60
2018-12-21T10:31:46.116Z,11.70
2018-12-21T10:32:46.172Z,11.56
2018-12-21T10:33:46.227Z,11.60
2018-12-21T10:34:46.281Z,11.59
2018-12-21T10:35:46.337Z,11.59
2018-12-21T10:36:46.391Z,11.70
2018-12-21T10:37:46.447Z,11.60
2018-12-21T10:38:46.501Z,11.53
2018-12-21T10:39:46.555Z,11.57
2018-12-21T10:40:46.611Z,11.54
2018-12-21T10:41:46.667Z,11.62
2018-12-21T10:42:46.723Z,11.67
2018-12-21T10:43:46.776Z,11.60
2018-12-21T10:44:46.831Z,11.64
2018-12-21T10:45:46.887Z,11.62
2018-12-21T10:46:46.945Z,11.57
2018-12-21T10:47:46.996Z,11.64
2018-12-21T10:48:47.607Z,11.54
2018-12-21T10:49:47.107Z,11.67
2018-12-21T10:50:47.162Z,11.70
2018-12-21T10:51:47.218Z,11.70
2018-12-21T10:52:47.273Z,11.74
2018-12-21T10:53:47.329Z,11.72
2018-12-21T10:54:47.382Z,11.79
2018-12-21T10:55:47.436Z,11.78
2018-12-21T10:56:47.491Z,11.74
2018-12-21T10:57:47.555Z,11.79
2018-12-21T10:58:49.758Z,11.78
2018-12-21T10:59:47.660Z,11.78
2018-12-21T11:00:47.712Z,11.85
2018-12-21T11:01:47.768Z,11.94
2018-12-21T11:02:47.823Z,11.90
2018-12-21T11:03:47.879Z,11.90
2018-12-21T11:04:47.934Z,11.94
2018-12-21T11:05:47.990Z,11.85
2018-12-21T11:06:48.045Z,11.93
2018-12-21T11:07:48.099Z,11.88
2018-12-21T11:08:48.154Z,12.01
2018-12-21T11:09:48.212Z,12.05
2018-12-21T11:10:48.264Z,12.08
2018-12-21T11:11:48.321Z,12.08
2018-12-21T11:12:48.374Z,12.08
2018-12-21T11:13:48.431Z,11.97
2018-12-21T11:14:48.486Z,12.01
2018-12-21T11:15:48.542Z,12.12
2018-12-21T11:16:48.596Z,12.03
2018-12-21T11:17:48.650Z,12.18
2018-12-21T11:18:48.708Z,12.11
2018-12-21T11:19:48.762Z,12.15
2018-12-21T11:20:48.817Z,12.13
2018-12-21T11:21:48.875Z,12.23
2018-12-21T11:22:48.928Z,12.21
2018-12-21T11:23:48.982Z,12.22
2018-12-21T11:24:49.039Z,12.33
2018-12-21T11:25:49.097Z,12.22
2018-12-21T11:26:49.151Z,12.33
2018-12-21T11:27:49.205Z,12.34
2018-12-21T11:28:49.260Z,12.37
2018-12-21T11:29:49.982Z,12.41
2018-12-21T11:30:49.372Z,12.48
2018-12-21T11:31:49.426Z,12.40
2018-12-21T11:32:49.483Z,12.44
2018-12-21T11:33:49.539Z,12.43
2018-12-21T11:34:49.596Z,12.48
2018-12-21T11:35:49.648Z,12.46
2018-12-21T11:36:49.704Z,12.44
2018-12-21T11:37:49.762Z,12.34
2018-12-21T11:38:49.815Z,12.37
2018-12-21T11:39:49.872Z,12.48
2018-12-21T11:40:49.934Z,12.43
2018-12-21T11:41:49.983Z,12.43
2018-12-21T11:42:50.038Z,12.37
2018-12-21T11:43:50.093Z,12.40
2018-12-21T11:44:50.149Z,12.44
2018-12-21T11:45:50.204Z,12.56
2018-12-21T11:46:50.260Z,12.56
2018-12-21T11:47:50.315Z,12.54
2018-12-21T11:48:50.379Z,12.58
2018-12-21T11:49:50.427Z,12.56
2018-12-21T11:50:50.484Z,12.51
2018-12-21T11:51:50.539Z,12.70
2018-12-21T11:52:50.596Z,12.56
2018-12-21T11:53:50.652Z,12.63
2018-12-21T11:54:50.708Z,12.66
2018-12-21T11:55:50.765Z,12.62
2018-12-21T11:56:50.818Z,12.63
2018-12-21T11:57:50.873Z,12.69
2018-12-21T11:58:50.929Z,12.66
2018-12-21T11:59:50.983Z,12.62
2018-12-21T12:00:51.040Z,12.61
2018-12-21T12:01:51.095Z,12.58
2018-12-21T12:02:51.152Z,12.55
2018-12-21T12:03:51.208Z,12.62
2018-12-21T12:04:51.262Z,12.63
2018-12-21T12:05:51.319Z,12.59
2018-12-21T12:06:51.376Z,12.58
2018-12-21T12:07:51.431Z,12.59
2018-12-21T12:08:51.486Z,12.63
2018-12-21T12:09:51.543Z,12.62
2018-12-21T12:10:51.598Z,12.74
2018-12-21T12:11:51.653Z,12.71
2018-12-21T12:12:51.710Z,12.67
2018-12-21T12:13:51.765Z,12.85
2018-12-21T12:14:51.823Z,12.73
2018-12-21T12:15:51.877Z,12.69
2018-12-21T12:16:51.936Z,12.67
2018-12-21T12:17:51.990Z,12.69
2018-12-21T12:18:52.045Z,12.84
2018-12-21T12:19:52.104Z,12.84
2018-12-21T12:20:52.156Z,12.71
2018-12-21T12:21:52.214Z,12.67
2018-12-21T12:22:52.270Z,12.71
2018-12-21T12:23:52.332Z,12.79
2018-12-21T12:25:25.589Z,12.70
2018-12-21T12:25:52.434Z,12.84
2018-12-21T12:26:52.491Z,12.70
2018-12-21T12:27:52.546Z,12.79
2018-12-21T12:28:52.602Z,12.81
2018-12-21T12:29:52.661Z,12.77
2018-12-21T12:30:52.713Z,12.80
2018-12-21T12:31:52.769Z,12.80
2018-12-21T12:32:52.827Z,12.76
2018-12-21T12:33:52.883Z,12.74
2018-12-21T12:34:52.937Z,12.80
2018-12-21T12:35:52.992Z,12.79
2018-12-21T12:36:53.048Z,12.84
2018-12-21T12:37:53.105Z,12.88
2018-12-21T12:38:53.160Z,12.91
2018-12-21T12:39:53.220Z,12.92
2018-12-21T12:40:53.272Z,12.88
2018-12-21T12:41:53.328Z,12.91
2018-12-21T12:42:53.384Z,12.94
2018-12-21T12:43:53.439Z,12.91
2018-12-21T12:44:53.494Z,12.94
2018-12-21T12:45:53.552Z,12.95
2018-12-21T12:46:53.608Z,12.99
2018-12-21T12:47:53.662Z,13.10
2018-12-21T12:48:53.719Z,13.17
2018-12-21T12:49:53.777Z,13.10
2018-12-21T12:50:53.830Z,13.13
2018-12-21T12:51:53.886Z,13.09
2018-12-21T12:52:53.946Z,13.06
2018-12-21T12:53:54.016Z,13.06
2018-12-21T12:55:02.354Z,12.98
2018-12-21T12:55:54.720Z,13.06
2018-12-21T12:56:54.166Z,13.12
2018-12-21T12:57:54.223Z,13.17
2018-12-21T12:58:54.280Z,13.32
2018-12-21T12:59:54.340Z,13.28
2018-12-21T13:00:54.392Z,13.35
2018-12-21T13:01:54.572Z,13.41
2018-12-21T13:02:54.504Z,13.41
2018-12-21T13:03:54.559Z,13.48
2018-12-21T13:04:54.614Z,13.53
2018-12-21T13:05:54.671Z,13.54